RESULTATS »

INSCRITS PRESENTATS ACABEN RETIRATS DESQUALIFICATS DIST. TRAM 1 DIST. TRAM 2 DIST. TRAM 3 TEMP. EXT TEMP. AIGUA
200 183 181 1 1 2500 1000 2500 25 22

CLASSIFICACIÓ

MASCULÍ FEMENÍ CATEGORIES CLUBS (MASCULINA) CLUBS (FEMENINA) INDIVIDUALS GRUPS D'EDAT

LLOCDORSALNOMCLUBCAT.T.META| P.Tram 1 || P.Tram 2 |Km/hTEMPS| P.Tram 3 |PARC_1PARC_2
1 40ANNA FLAQUER PORTIFASTTRIATLON - C.N. MONTJSUB23F00:33:423700:09:141400:16:523557.3100:26:062500:07:360:00:000:00:00
2 30LAURA GOMEZ RAMONC.N. SABADELLSUB23F00:34:463000:09:112700:17:233451.5800:26:346100:08:120:00:000:00:00
3 7004YANIRA SERRA CARRASCOLLICENCIA DE DIACDF00:35:3410100:10:20600:15:553769.6300:26:1512300:09:190:00:000:00:00
4 43CARMEN MARIA RODRÍGUEZ GOTRITEAM GIRONAABF00:35:534400:09:194700:18:393217.1600:27:584300:07:550:00:000:00:00
5 65JULIANA VILLASANTE DUEÑASFASTTRIATLON - C.N. MONTJABF00:36:227100:09:583200:17:453380.2800:27:438700:08:390:00:000:00:00
6 6214SOFIA AGUAYO MAURIPRAT TRIATLO 1994JNF00:36:477200:09:583600:18:053317.9700:28:039400:08:440:00:000:00:00
7 1988BELEN HIDALGO VALLSCERDANYOLA CHV1F00:37:009700:10:153900:18:193275.7100:28:347300:08:260:00:000:00:00
8 60ANABEL GRACIA GARASAFASTTRIATLON - C.N. MONTJV1F00:37:108500:10:094900:18:493188.6600:28:586200:08:120:00:000:00:00
9 7006MIREIA PANIGUA SANCHEZLLICENCIA DE DIACDF00:37:1112500:11:051500:16:553546.8000:28:0011900:09:110:00:000:00:00
10 1960IVET FARRIOLS ARIMONTSALTOKI TRIKIDEAKABF00:37:519300:10:125100:18:523180.2100:29:049700:08:470:00:000:00:00
11 4003TANIA GUERRA ROMEROPRAT TRIATLO 1994ABF00:38:406000:09:428400:20:532873.1000:30:355200:08:050:00:000:00:00
12 3521MONICA CRISOL SALASCLUB NATACIO RUBIABF00:39:107300:09:589000:21:082839.1200:31:064900:08:040:00:000:00:00
13 3585MARTA COSANO BOFILLCLUB NATACIO BARCELONAJNF00:39:2810400:10:246700:19:533017.6000:30:1711800:09:110:00:000:00:00
14 89EMMANUELLE GRANDINCERDANYOLA CHABF00:39:3111300:10:456600:19:533017.6000:30:3810000:08:530:00:000:00:00
15 7037SANDRA GARCIA MARTINEZLLICENCIA DE DIAJNF00:39:3815200:12:302000:17:003529.4100:29:3014800:10:080:00:000:00:00
16 1948ELENA HIDALGO VALLSCERDANYOLA CHV1F00:39:486100:09:4210100:22:062714.9300:31:484600:08:000:00:000:00:00
17 6188LAURA BAYOD JAIMEC.N. TERRASSA-CICLES MORECDF00:39:5911500:10:466500:19:503025.2100:30:3612600:09:230:00:000:00:00
18 7009CLÀUDIA GIRALT PIDEMONTLLICENCIA DE DIACDF00:40:1915600:12:442200:17:163474.9000:30:0015500:10:190:00:000:00:00
19 7005PAULA GONZALEZ SAN JOSELLICENCIA DE DIACDF00:40:2715700:12:442300:17:163474.9000:30:0015700:10:270:00:000:00:00
20 6184CARLA PÉREZ DE LA VILLACLUB NATACIO BARCELONACDF00:40:2910300:10:228600:20:572863.9600:31:1911700:09:100:00:000:00:00
21 6052SANDRA FUENTESECA BLANCOFASTTRIATLON - C.N. MONTJABF00:40:359600:10:159600:21:272797.2000:31:429900:08:530:00:000:00:00
22 3537ALBA AMAT FERNÀNDEZC.N. CATALUNYAJNF00:40:4910700:10:388800:21:052845.8500:31:4311400:09:060:00:000:00:00
23 8006MARTA MARTÍN-MORA SEGURALLICENCIA DE DIACDF00:41:0212200:11:028100:20:302926.8300:31:3212900:09:300:00:000:00:00
24 7024CRISTINA BATLLES PROKUSHELLICENCIA DE DIACDF00:41:0212300:11:038000:20:292929.2100:31:3213000:09:300:00:000:00:00
25 7011MONTSERRAT ESTANY DE POUPLLICENCIA DE DIASUB23F00:41:056600:09:4911800:23:092591.7900:32:585300:08:070:00:000:00:00
26 3501MIRIAM CODINA CASTILLOCLUB TRIATLO GRANOLLERSABF00:41:1810500:10:2610200:22:072712.8900:32:339500:08:450:00:000:00:00
27 3584ASSUMPTA CASTELLTORT AMORCERRR IGUALADAV2F00:41:3312900:11:179500:21:172819.1100:32:3410400:08:590:00:000:00:00
28 7017EVA AMADO VALEROLLICENCIA DE DIACDF00:41:5015300:12:333800:18:133293.6900:30:4616800:11:040:00:000:00:00
29 7016ALEXANDRA SANTILUKKA GARCLLICENCIA DE DIACDF00:41:5716000:12:553400:17:583339.5200:30:5316700:11:040:00:000:00:00
30 7008PAULA MONTES DEL TOROLLICENCIA DE DIACDF00:41:5915900:12:534100:18:263254.9700:31:1915900:10:400:00:000:00:00
31 7034MIREIA CAVERO SIBERALLICENCIA DE DIACDF00:42:4114200:11:437500:20:152962.9600:31:5816000:10:430:00:000:00:00
32 6035IRENE PEREZ TORRESASS ESPORTIVA ROCKETSCDF00:42:4111100:10:4411600:23:042601.1600:33:4810100:08:530:00:000:00:00
33 3582MARTA MARIMON CASTELLTORTCERRR IGUALADAABF00:43:1613100:11:1710300:22:112704.7300:33:2813900:09:480:00:000:00:00
34 1827MARINA CASTELLS CODINACLUB TRIATLÓ LLEIDA SUB23F00:44:3414100:11:4312000:23:122586.2100:34:5513500:09:390:00:000:00:00
35 38SARA GRACIA FERNANDEZC.N. BADALONASUB23F00:45:0714700:12:0610400:22:172692.6000:34:2316100:10:440:00:000:00:00
36 6008NATÀLIA VALLS RUIZCLUB TRIBANDA TRIATLOABF00:45:1614000:11:2813100:24:352440.6800:36:0312100:09:130:00:000:00:00
37 5010IRENE MELINA ARAQUE BEKKITEAM CALELLA TRIATHLONABF00:45:1911900:10:5614000:25:182371.5400:36:1411300:09:050:00:000:00:00
38 1812CAROLINA AYZA DONATOCLUB TRIATLO GRANOLLERSABF00:45:4315100:12:1911700:23:082593.6600:35:2715400:10:160:00:000:00:00
39 6204JÚLIA PASCUALCLUB PROAMSUB23F00:47:0914800:12:0612200:23:382538.7900:35:4417300:11:250:00:000:00:00
40 8013MÓNICA DOMÍNGUEZ HERNANDELLICENCIA DE DIAABF00:47:1213500:11:2214500:26:072297.3800:37:2913700:09:430:00:000:00:00
41 25ALBA MARTINEZ DE LA CRUZC.N. BADALONAABF00:47:1313000:11:1714400:26:012306.2100:37:1814300:09:550:00:000:00:00
42 1807ANGELS PUIG VILAROC.N. BADALONAV1F00:47:2315500:12:3613300:24:462422.6100:37:2214600:10:010:00:000:00:00
43 35NOELIA CORBALAN MANGRANÉC.N. BADALONAV1F00:48:5216800:13:4111500:22:582612.4800:36:3917400:12:130:00:000:00:00
44 31MONTSE CUEVAS CASTILLOCLUB TRIATLO GRANOLLERSV2F00:49:4615800:12:5114600:26:102292.9900:39:0116200:10:450:00:000:00:00
45 7020SÍLVIA SAMPONS MIRASLLICENCIA DE DIAABF00:50:0216300:13:0614100:25:322349.8700:38:3817200:11:240:00:000:00:00
46 6198MIREIA VIDAL I VALLSCERRR IGUALADAV1F00:50:3216100:13:0315000:26:232274.1600:39:2616900:11:060:00:000:00:00
47 7010ANA FERNANDEZ NICOLASLLICENCIA DE DIAABF00:52:0117100:14:3413500:24:592401.6000:39:3317600:12:280:00:000:00:00
48 1851MARTA SANCHEZ SALINASCLUB TRIATLO L´EIX DE NAVV1F00:53:0814900:12:0816700:30:481948.0500:42:5615200:10:120:00:000:00:00
49 28ROSA MARIA GIBERGA CONDECERRR IGUALADAV1F00:54:0816600:13:2416600:29:542006.6900:43:1816400:10:500:00:000:00:00
50 3562MARIA DAVILA RUEDAW3TRIBCNV2F00:57:2317200:15:2616500:29:182047.7800:44:4417800:12:390:00:000:00:00
51 7007PILAR CASTAÑO MARTINLLICENCIA DE DIAABF00:57:4716500:13:0916900:33:481775.1500:46:5716500:10:500:00:000:00:00






FEDERACIÓ CATALANA DE TRIATLÓ
SEU CENTRAL I CORRESPONDÈNCIA: Rambla Guipúscoa 23-25 2on-D · 08018 Barcelona · Tel / Fax : 93 307 93 35
ATENCIÓ AL PÚBLIC: Passeig Joan de Borbó, 93 (Club Natació Barcelona) · 08039 Barcelona · Tel / Fax : 93 307 93 32